Historyczne dane pomiarowe

Dodano dane terminowe – wersja testowa.

Dane z okresu 1951-2019

Wersja bazy: 1.34 [2019-03-16, lista zmian], aktualizacja planowana na 2019-04-15

Dane meteo z obszaru Polski uzyskane na podstawie danych udostępnionych przez Instytut Meteorologii i Gospodarki Wodnej – Państwowy Instytut Badawczy.

 

Wybierz Datę:    

       

TemperaturaWilgotnośćWiatrCiśnienieOpadyŚniegCzas trwania zjawisk
 Stacja t tx tn tng RH VA  wxwx mslp ppp RRR   cm mm wxwxwxwxwxwxwx
1961-02-14 4.6 6.1 1.8 0.4-- 8.0 1.3---- 0.0------------
1961-02-15 7.2 13.1 0.0 -1.3-- 4.7 1.3---- 0.0------------
1961-02-16 5.2 9.3 4.5 3.3-- 8.0 2.7---- 0.0------------
1961-02-17 4.2 7.5 2.3 4.3-- 5.0 1.0---- 0.0------------
1961-02-18 4.8 12.3 -1.5 -4.4-- 0.0 1.0---- 0.0------------
1961-02-19 4.4 5.3 3.0 0.5-- 8.0 2.7---- 0.1------------
1961-02-20 4.5 5.4 3.8 3.5-- 8.0 1.3---- 0.0------------
1961-02-21 3.2 6.5 0.7 2.9-- 5.0 0.3---- 0.0------------
1961-02-22 1.6 7.6 -2.6 -6.9-- 2.7 0.7---- 0.0------------
1961-02-23 1.1 2.5 -1.0 -0.6-- 8.0 3.7---- 0.0------------
1961-02-24 2.5 4.6 -1.1 1.3-- 5.0 3.7---- 0.0------------
1961-02-25 1.2 4.6 -0.3 -3.1-- 5.7 5.7---- 0.0------------
1961-02-26 3.7 9.0 -1.5 -2.0-- 3.7 3.3---- 0.0------------
1961-02-27 7.4 11.8 1.2 0.2-- 5.7 5.0---- 0.7------------
1961-02-28 7.0 13.1 2.7 6.1-- 7.3 6.7---- 0.3------------
1961-03-01 4.2 6.0 3.0 2.5-- 6.3 2.3---- 0.1------------
1961-03-02 3.6 5.4 0.7 -1.6-- 7.3 2.0---- 2.4------------
1961-03-03 5.8 7.3 2.9 2.6-- 8.0 1.7---- 1.7------------
1961-03-04 5.6 9.5 2.7 3.4-- 4.0 2.0---- 0.0------------
1961-03-05 5.6 9.1 4.3 2.4-- 6.0 2.3---- 0.0------------
1961-03-06 3.9 6.1 3.1 1.2-- 6.3 1.3---- 0.0------------
1961-03-07 7.9 13.5 1.6 -1.2-- 4.3 3.0---- 0.0------------
1961-03-08 6.5 12.4 1.7 -2.4-- 2.7 2.7---- 0.0------------
1961-03-09 9.1 14.6 3.4 1.6-- 0.0 3.0---- 0.0------------
1961-03-10 10.7 19.4 0.1 -3.4-- 1.0 1.7---- 0.0------------
1961-03-11 9.2 11.6 7.1 4.3-- 3.7 4.7---- 0.0------------
1961-03-12 11.5 15.1 7.0 5.6-- 6.7 8.7---- 0.6------------
1961-03-13 6.2 12.6 5.6 5.2-- 6.3 4.7---- 0.0------------
1961-03-14 8.3 12.6 4.9 3.6-- 8.0 2.0---- 2.2------------
1961-03-15 10.5 15.5 8.6 8.0-- 4.0 6.0---- 0.0------------
267.2 ms

 

Źródłem pochodzenia danych jest Instytut Meteorologii i Gospodarki Wodnej – Państwowy Instytut Badawczy. Dane Instytutu Meteorologii i Gospodarki Wodnej – Państwowego Instytutu Badawczego zostały przetworzone.

Dane źródłowe można odnaleźć na stronie https://dane.imgw.pl